Etusivu
METAR-TAF:

METAR-TAF

Lentoasemat :

Merrill Municipal Airport

Merrill, Wisconsin, Yhdysvallat

Leveyspiiri: 45-11N, Pituuspiiri: 089-42W, korkeus merenpinnasta: 401 m

Tämänhetkinen sää

Tämä raportti tehtiin 25 minuuttia sitten, kello 04.35 UTC
Tuuli 8 kn pohjoisesta/koillisesta
Lämpötila 5°C
Kosteus 93%
Ilmanpaine 1015 hPa
Näkyvyys: 16.1 km
Pilvistä 1100 ft:n korkeudessa

METAR: KRRL 230435Z AUTO 02008KT 10SM OVC011 05/04 A2997 RMK AO2 T00460042 TSNO

Aika: 00:00 (05:00 UTC)


TAF: puuttuu

Säähavainnot ja -ennusteet yli 4000 lentoasemalta (METAR- ja TAF-raportit).

Käytössä olevat sääasemat on merkitty karttaan keltaisilla ja punaisilla pisteillä.

Aseta hiiri pisteen päälle nähdäksesi sääaseman nimen.

Klikkaa sitten nähdäksesi säähavainnot ja -ennusteet.

Kartan vaihtaminen: klikkaa mustalla rastilla varustettuja vihreitä pisteitä, niin voit zoomata sisään; viivalla varustettua vihreää pistettä, niin voit zoomata ulos tai vihreitä nuolia, niin pääset viereisille kartoille.


METAR-TAF: